createdAt,value
2022-09-06T00:00:33.590Z,101901.91
2022-09-06T00:01:36.621Z,101896.31
2022-09-06T00:02:40.480Z,101899.59
2022-09-06T00:03:44.501Z,101896.72
2022-09-06T00:04:49.008Z,101898.25
2022-09-06T00:05:51.925Z,101901.50
2022-09-06T00:06:55.025Z,101894.41
2022-09-06T00:08:03.089Z,101891.53
2022-09-06T00:09:06.227Z,101901.00
2022-09-06T00:10:10.759Z,101898.19
2022-09-06T00:11:14.844Z,101898.00
2022-09-06T00:12:17.903Z,101896.22
2022-09-06T00:13:21.496Z,101901.28
2022-09-06T00:14:24.571Z,101901.09
2022-09-06T00:15:27.754Z,101904.31
2022-09-06T00:16:30.941Z,101907.56
2022-09-06T00:17:34.805Z,101902.19
2022-09-06T00:18:38.386Z,101907.19
2022-09-06T00:19:41.432Z,101906.22
2022-09-06T00:20:44.442Z,101910.63
2022-09-06T00:21:47.437Z,101903.59
2022-09-06T00:22:50.569Z,101905.25
2022-09-06T00:23:54.150Z,101906.88
2022-09-06T00:24:57.256Z,101905.25
2022-09-06T00:26:05.016Z,101903.59
2022-09-06T00:27:08.948Z,101909.56
2022-09-06T00:28:11.948Z,101914.13
2022-09-06T00:29:15.105Z,101913.41
2022-09-06T00:30:18.190Z,101908.19
2022-09-06T00:31:24.506Z,101913.31
2022-09-06T00:32:27.696Z,101907.19
2022-09-06T00:33:30.668Z,101914.22
2022-09-06T00:34:33.526Z,101904.50
2022-09-06T00:35:36.486Z,101908.81
2022-09-06T00:36:39.626Z,101906.06
2022-09-06T00:37:42.552Z,101902.56
2022-09-06T00:38:46.000Z,101911.06
2022-09-06T00:39:49.041Z,101908.47
2022-09-06T00:40:52.170Z,101910.88
2022-09-06T00:41:55.226Z,101907.28
2022-09-06T00:42:58.485Z,101905.44
2022-09-06T00:44:02.072Z,101909.56
2022-09-06T00:45:07.459Z,101905.94
2022-09-06T00:46:21.256Z,101906.59
2022-09-06T00:47:24.897Z,101907.22
2022-09-06T00:48:28.054Z,101905.22
2022-09-06T00:49:41.451Z,101901.66
2022-09-06T00:50:48.469Z,101905.06
2022-09-06T00:51:56.178Z,101908.28
2022-09-06T00:52:59.277Z,101909.88
2022-09-06T00:54:09.561Z,101906.13
2022-09-06T00:55:13.418Z,101911.25
2022-09-06T00:56:16.740Z,101911.16
2022-09-06T00:57:20.187Z,101913.66
2022-09-06T00:58:23.952Z,101910.94
2022-09-06T00:59:30.143Z,101913.44
2022-09-06T01:00:33.279Z,101910.78
2022-09-06T01:01:36.332Z,101913.63
2022-09-06T01:02:39.573Z,101912.00
2022-09-06T01:03:43.130Z,101911.19
2022-09-06T01:04:49.217Z,101914.69
2022-09-06T01:06:06.732Z,101911.09
2022-09-06T01:07:33.231Z,101904.84
2022-09-06T01:09:20.456Z,101909.16
2022-09-06T01:10:32.643Z,101901.03
2022-09-06T01:11:53.871Z,101899.25
2022-09-06T01:13:31.740Z,101904.19
2022-09-06T01:15:06.294Z,101902.38
2022-09-06T01:16:18.713Z,101910.91
2022-09-06T01:18:17.805Z,101907.28
2022-09-06T01:19:40.738Z,101908.00
2022-09-06T01:20:50.572Z,101906.19
2022-09-06T01:22:08.454Z,101911.41
2022-09-06T01:24:04.429Z,101904.50
2022-09-06T01:25:25.719Z,101905.28
2022-09-06T01:27:09.366Z,101906.91
2022-09-06T01:28:18.343Z,101900.69
2022-09-06T01:29:51.647Z,101906.69
2022-09-06T01:31:11.663Z,101901.41
2022-09-06T01:33:03.974Z,101897.91
2022-09-06T01:34:06.842Z,101901.28
2022-09-06T01:35:55.146Z,101902.03
2022-09-06T01:37:13.767Z,101906.44
2022-09-06T01:38:17.646Z,101897.53
2022-09-06T01:39:33.797Z,101902.63
2022-09-06T01:40:37.105Z,101901.72
2022-09-06T01:41:40.223Z,101899.13
2022-09-06T01:42:46.325Z,101900.03
2022-09-06T01:43:52.256Z,101900.03
2022-09-06T01:45:07.442Z,101895.72
2022-09-06T01:46:42.808Z,101896.72
2022-09-06T01:48:11.481Z,101898.53
2022-09-06T01:49:58.876Z,101904.72
2022-09-06T01:51:12.822Z,101896.09
2022-09-06T01:52:42.732Z,101901.28
2022-09-06T01:54:26.508Z,101902.13
2022-09-06T01:55:49.772Z,101910.91
2022-09-06T01:57:41.523Z,101901.28
2022-09-06T01:59:01.863Z,101906.50
2022-09-06T02:00:10.426Z,101906.50
2022-09-06T02:01:36.638Z,101909.94
2022-09-06T02:03:13.026Z,101904.53
2022-09-06T02:05:04.898Z,101909.72
2022-09-06T02:06:18.488Z,101900.94
2022-09-06T02:07:28.426Z,101903.72
2022-09-06T02:08:44.621Z,101907.94
2022-09-06T02:09:59.107Z,101905.22
2022-09-06T02:11:05.989Z,101903.53
2022-09-06T02:12:15.250Z,101906.13
2022-09-06T02:13:19.961Z,101905.94
2022-09-06T02:15:01.742Z,101910.34
2022-09-06T02:16:08.462Z,101904.13
2022-09-06T02:17:17.966Z,101910.22
2022-09-06T02:18:29.878Z,101909.34
2022-09-06T02:19:55.235Z,101907.72
2022-09-06T02:21:01.774Z,101903.44
2022-09-06T02:22:10.306Z,101906.03
2022-09-06T02:23:15.279Z,101900.13
2022-09-06T02:24:28.669Z,101907.22
2022-09-06T02:25:42.914Z,101903.09
2022-09-06T02:26:47.695Z,101908.50
2022-09-06T02:27:50.918Z,101905.09
2022-09-06T02:28:54.709Z,101906.91
2022-09-06T02:29:57.823Z,101910.50
2022-09-06T02:31:09.524Z,101905.28
2022-09-06T02:32:25.058Z,101908.00
2022-09-06T02:33:33.252Z,101917.69
2022-09-06T02:34:43.291Z,101910.69
2022-09-06T02:35:50.106Z,101907.28
2022-09-06T02:36:54.681Z,101910.91
2022-09-06T02:37:58.101Z,101907.69
2022-09-06T02:39:02.140Z,101913.06
2022-09-06T02:40:06.166Z,101914.06
2022-09-06T02:41:10.645Z,101907.44
2022-09-06T02:42:15.705Z,101907.53
2022-09-06T02:43:19.006Z,101905.19
2022-09-06T02:44:22.104Z,101911.59
2022-09-06T02:45:25.032Z,101913.38
2022-09-06T02:46:28.203Z,101917.75
2022-09-06T02:47:31.297Z,101914.56
2022-09-06T02:48:34.525Z,101916.34
2022-09-06T02:49:37.730Z,101911.16
2022-09-06T02:50:40.937Z,101913.94
2022-09-06T02:51:43.935Z,101907.84
2022-09-06T02:52:46.899Z,101917.34
2022-09-06T02:53:49.885Z,101911.50
2022-09-06T02:54:52.907Z,101909.78
2022-09-06T02:55:57.205Z,101907.28
2022-09-06T02:57:00.263Z,101898.78
2022-09-06T02:58:03.727Z,101898.06
2022-09-06T02:59:06.742Z,101901.66
2022-09-06T03:00:10.816Z,101901.66
2022-09-06T03:01:13.730Z,101898.97
2022-09-06T03:02:17.774Z,101893.09
2022-09-06T03:03:22.040Z,101894.66
2022-09-06T03:04:25.040Z,101891.16
2022-09-06T03:05:28.724Z,101890.34
2022-09-06T03:06:32.640Z,101891.16
2022-09-06T03:07:35.749Z,101888.66
2022-09-06T03:08:38.791Z,101891.06
2022-09-06T03:09:41.898Z,101892.84
2022-09-06T03:10:56.430Z,101887.47
2022-09-06T03:11:59.494Z,101892.47
2022-09-06T03:13:02.805Z,101890.53
2022-09-06T03:14:06.136Z,101893.00
2022-09-06T03:15:10.265Z,101894.28
2022-09-06T03:16:13.568Z,101892.38
2022-09-06T03:17:16.767Z,101892.19
2022-09-06T03:18:19.841Z,101891.19
2022-09-06T03:19:22.778Z,101895.84
2022-09-06T03:20:26.395Z,101897.53
2022-09-06T03:21:29.363Z,101896.88
2022-09-06T03:22:32.639Z,101894.88
2022-09-06T03:23:35.673Z,101892.59
2022-09-06T03:24:38.622Z,101895.09
2022-09-06T03:25:43.239Z,101898.28
2022-09-06T03:26:46.221Z,101896.41
2022-09-06T03:27:49.259Z,101896.28
2022-09-06T03:28:52.367Z,101894.34
2022-09-06T03:29:55.711Z,101899.34
2022-09-06T03:30:58.856Z,101900.94
2022-09-06T03:32:02.130Z,101900.72
2022-09-06T03:33:05.052Z,101898.13
2022-09-06T03:34:10.963Z,101900.56
2022-09-06T03:35:15.281Z,101895.16
2022-09-06T03:36:18.366Z,101902.75
2022-09-06T03:37:21.508Z,101897.47
2022-09-06T03:38:27.201Z,101889.56
2022-09-06T03:39:30.411Z,101898.19
2022-09-06T03:40:33.687Z,101896.41
2022-09-06T03:41:38.262Z,101905.91
2022-09-06T03:42:41.419Z,101898.00
2022-09-06T03:43:44.338Z,101899.59
2022-09-06T03:44:47.623Z,101897.00
2022-09-06T03:45:57.389Z,101903.00
2022-09-06T03:47:00.502Z,101900.19
2022-09-06T03:48:03.758Z,101897.59
2022-09-06T03:49:08.238Z,101897.41
2022-09-06T03:50:11.511Z,101900.81
2022-09-06T03:51:14.417Z,101900.81
2022-09-06T03:52:17.862Z,101896.41
2022-09-06T03:53:22.286Z,101890.22
2022-09-06T03:54:25.128Z,101900.63
2022-09-06T03:55:28.014Z,101893.50
2022-09-06T03:56:30.952Z,101894.31
2022-09-06T03:57:34.037Z,101890.91
2022-09-06T03:58:37.157Z,101896.84
2022-09-06T03:59:40.422Z,101895.94
2022-09-06T04:00:43.666Z,101893.41
2022-09-06T04:01:46.926Z,101896.84
2022-09-06T04:02:50.008Z,101895.03
2022-09-06T04:03:53.041Z,101897.66
2022-09-06T04:04:56.089Z,101890.75
2022-09-06T04:05:59.017Z,101890.03
2022-09-06T04:07:02.355Z,101892.63
2022-09-06T04:08:06.155Z,101890.03
2022-09-06T04:09:08.976Z,101891.13
2022-09-06T04:10:11.954Z,101892.81
2022-09-06T04:11:16.034Z,101892.81
2022-09-06T04:12:20.345Z,101893.81
2022-09-06T04:13:24.775Z,101895.78
2022-09-06T04:14:27.930Z,101894.28
2022-09-06T04:15:31.015Z,101896.19
2022-09-06T04:16:34.169Z,101887.69
2022-09-06T04:17:37.335Z,101885.25
2022-09-06T04:18:40.587Z,101885.47
2022-09-06T04:19:43.435Z,101886.56
2022-09-06T04:20:49.731Z,101889.53
2022-09-06T04:21:52.721Z,101895.94
2022-09-06T04:22:55.767Z,101890.91
2022-09-06T04:23:58.830Z,101882.50
2022-09-06T04:25:01.845Z,101892.50
2022-09-06T04:26:05.088Z,101890.09
2022-09-06T04:27:08.030Z,101880.06
2022-09-06T04:28:10.881Z,101889.03
2022-09-06T04:29:13.831Z,101884.19
2022-09-06T04:30:17.666Z,101892.56
2022-09-06T04:31:20.906Z,101891.13
2022-09-06T04:32:24.145Z,101886.22
2022-09-06T04:33:29.575Z,101886.56
2022-09-06T04:34:33.314Z,101888.72
2022-09-06T04:35:36.758Z,101892.69
2022-09-06T04:36:40.097Z,101888.00
2022-09-06T04:37:43.328Z,101887.44
2022-09-06T04:38:46.367Z,101894.91
2022-09-06T04:39:49.566Z,101891.75
2022-09-06T04:40:52.811Z,101888.69
2022-09-06T04:41:55.804Z,101893.38
2022-09-06T04:42:58.796Z,101891.75
2022-09-06T04:44:01.869Z,101894.50
2022-09-06T04:45:05.801Z,101891.38
2022-09-06T04:46:30.484Z,101893.50
2022-09-06T04:47:33.595Z,101884.59
2022-09-06T04:48:36.584Z,101890.41
2022-09-06T04:49:39.537Z,101881.16
2022-09-06T04:50:42.707Z,101887.38
2022-09-06T04:51:45.816Z,101891.91
2022-09-06T04:52:48.823Z,101890.31
2022-09-06T04:53:53.172Z,101887.69
2022-09-06T04:54:56.162Z,101891.47
2022-09-06T04:55:59.583Z,101897.91
2022-09-06T04:57:03.188Z,101895.22
2022-09-06T04:58:06.978Z,101899.34
2022-09-06T04:59:09.909Z,101892.81
2022-09-06T05:00:13.419Z,101889.41
2022-09-06T05:01:16.968Z,101886.34
2022-09-06T05:02:20.094Z,101894.97
2022-09-06T05:03:23.290Z,101890.97
2022-09-06T05:04:26.548Z,101881.53
2022-09-06T05:05:29.545Z,101891.16
2022-09-06T05:06:32.834Z,101889.66
2022-09-06T05:07:35.927Z,101890.72
2022-09-06T05:08:42.242Z,101896.13
2022-09-06T05:09:45.356Z,101886.16
2022-09-06T05:10:52.469Z,101889.00
2022-09-06T05:11:56.184Z,101896.19
2022-09-06T05:12:59.057Z,101893.66
2022-09-06T05:14:01.994Z,101893.97
2022-09-06T05:15:05.502Z,101890.06
2022-09-06T05:16:10.749Z,101890.72
2022-09-06T05:17:14.847Z,101890.22
2022-09-06T05:18:17.788Z,101887.59
2022-09-06T05:19:21.466Z,101891.19
2022-09-06T05:20:24.635Z,101892.16
2022-09-06T05:21:27.588Z,101890.88
2022-09-06T05:22:30.787Z,101889.72
2022-09-06T05:23:34.046Z,101886.59
2022-09-06T05:24:36.971Z,101888.56
2022-09-06T05:25:39.900Z,101889.22
2022-09-06T05:26:42.854Z,101887.97
2022-09-06T05:27:46.236Z,101880.03
2022-09-06T05:28:49.707Z,101885.59
2022-09-06T05:29:52.600Z,101883.94
2022-09-06T05:31:24.123Z,101877.41
2022-09-06T05:32:27.469Z,101875.59
2022-09-06T05:33:30.508Z,101877.69
2022-09-06T05:34:33.959Z,101870.00
2022-09-06T05:35:37.048Z,101875.91
2022-09-06T05:36:41.721Z,101872.75
2022-09-06T05:37:44.730Z,101882.06
2022-09-06T05:38:47.911Z,101879.03
2022-09-06T05:39:50.894Z,101871.75
2022-09-06T05:40:54.114Z,101878.84
2022-09-06T05:41:57.343Z,101876.88
2022-09-06T05:43:00.444Z,101872.53
2022-09-06T05:44:03.866Z,101872.66
2022-09-06T05:45:07.624Z,101869.72
2022-09-06T05:46:11.059Z,101869.50
2022-09-06T05:47:14.068Z,101867.06
2022-09-06T05:48:17.017Z,101869.25
2022-09-06T05:49:20.072Z,101876.63
2022-09-06T05:50:23.071Z,101867.88
2022-09-06T05:51:26.235Z,101869.16
2022-09-06T05:52:29.414Z,101859.75
2022-09-06T05:53:38.152Z,101862.19
2022-09-06T05:54:41.203Z,101864.34
2022-09-06T05:55:44.196Z,101857.44
2022-09-06T05:56:47.274Z,101853.88
2022-09-06T05:57:50.231Z,101856.44
2022-09-06T05:58:53.172Z,101851.00
2022-09-06T05:59:56.132Z,101853.56
2022-09-06T06:01:22.830Z,101853.53
2022-09-06T06:02:26.376Z,101851.81
2022-09-06T06:03:29.304Z,101854.25
2022-09-06T06:04:32.374Z,101847.97
2022-09-06T06:05:35.455Z,101847.69
2022-09-06T06:06:38.482Z,101846.72
2022-09-06T06:07:41.379Z,101846.28
2022-09-06T06:08:44.381Z,101848.50
2022-09-06T06:09:47.660Z,101846.69
2022-09-06T06:10:50.734Z,101846.78
2022-09-06T06:11:53.656Z,101845.00
2022-09-06T06:12:58.146Z,101844.16
2022-09-06T06:14:02.207Z,101844.34
2022-09-06T06:15:06.580Z,101846.03
2022-09-06T06:16:14.142Z,101840.34
2022-09-06T06:17:17.259Z,101837.97
2022-09-06T06:18:20.488Z,101840.91
2022-09-06T06:19:23.824Z,101841.91
2022-09-06T06:20:26.786Z,101836.41
2022-09-06T06:21:32.535Z,101840.16
2022-09-06T06:22:35.584Z,101838.81
2022-09-06T06:23:39.812Z,101848.13
2022-09-06T06:24:42.748Z,101838.94
2022-09-06T06:25:45.876Z,101846.00
2022-09-06T06:26:48.892Z,101840.13
2022-09-06T06:27:52.919Z,101840.75
2022-09-06T06:28:57.888Z,101846.75
2022-09-06T06:30:00.754Z,101838.13
2022-09-06T06:31:06.163Z,101837.88
2022-09-06T06:32:09.030Z,101843.53
2022-09-06T06:33:12.082Z,101838.22
2022-09-06T06:34:16.498Z,101836.84
2022-09-06T06:35:19.418Z,101835.34
2022-09-06T06:36:27.463Z,101835.59
2022-09-06T06:37:32.752Z,101835.91
2022-09-06T06:38:38.507Z,101832.19
2022-09-06T06:39:41.714Z,101836.94
2022-09-06T06:40:48.043Z,101821.78
2022-09-06T06:41:51.108Z,101828.25
2022-09-06T06:43:14.173Z,101830.00
2022-09-06T06:44:17.245Z,101830.66
2022-09-06T06:45:22.316Z,101838.16
2022-09-06T06:46:45.516Z,101834.22
2022-09-06T06:47:51.527Z,101840.56
2022-09-06T06:48:55.657Z,101836.06
2022-09-06T06:49:58.805Z,101846.31
2022-09-06T06:51:01.861Z,101839.75
2022-09-06T06:52:04.976Z,101838.56
2022-09-06T06:53:08.019Z,101837.19
2022-09-06T06:54:10.892Z,101834.09
2022-09-06T06:55:13.968Z,101839.06
2022-09-06T06:56:35.309Z,101841.44
2022-09-06T06:57:38.318Z,101848.25
2022-09-06T06:58:41.440Z,101842.91
2022-09-06T06:59:44.785Z,101839.63
2022-09-06T07:00:47.864Z,101844.78
2022-09-06T07:01:51.113Z,101851.84
2022-09-06T07:02:55.962Z,101849.81
2022-09-06T07:03:59.656Z,101850.00
2022-09-06T07:07:54.869Z,101843.09
2022-09-06T07:08:59.107Z,101843.38
2022-09-06T07:11:27.872Z,101853.84
2022-09-06T07:12:30.996Z,101843.75
2022-09-06T07:13:34.434Z,101845.56
2022-09-06T07:14:37.632Z,101840.22
2022-09-06T07:15:40.633Z,101841.06
2022-09-06T07:16:44.006Z,101846.03
2022-09-06T07:17:47.116Z,101844.06
2022-09-06T07:18:55.047Z,101847.03
2022-09-06T07:20:14.056Z,101841.06
2022-09-06T07:22:40.960Z,101848.91
2022-09-06T07:25:10.415Z,101846.47
2022-09-06T07:26:20.496Z,101847.06
2022-09-06T07:28:48.071Z,101853.22
2022-09-06T07:29:51.117Z,101841.44
2022-09-06T07:30:56.035Z,101844.22
2022-09-06T07:32:14.942Z,101846.63
2022-09-06T07:33:18.898Z,101845.09
2022-09-06T07:34:22.309Z,101845.25
2022-09-06T07:35:26.702Z,101843.72
2022-09-06T07:36:29.826Z,101833.47
2022-09-06T07:37:32.883Z,101844.63
2022-09-06T07:38:37.201Z,101833.78
2022-09-06T07:39:41.348Z,101831.25
2022-09-06T07:40:52.493Z,101842.16
2022-09-06T07:41:55.922Z,101839.34
2022-09-06T07:43:00.211Z,101833.44
2022-09-06T07:44:03.601Z,101833.75
2022-09-06T07:45:06.975Z,101836.72
2022-09-06T07:46:16.827Z,101831.31
2022-09-06T07:48:45.756Z,101827.56
2022-09-06T07:51:16.808Z,101830.97
2022-09-06T07:53:45.404Z,101827.81
2022-09-06T07:54:48.346Z,101815.22
2022-09-06T07:55:51.436Z,101828.00
2022-09-06T07:56:54.624Z,101827.19
2022-09-06T07:57:57.572Z,101829.94
2022-09-06T07:59:00.507Z,101829.06
2022-09-06T08:00:05.094Z,101837.19
2022-09-06T08:01:31.344Z,101834.97
2022-09-06T08:02:34.474Z,101830.06
2022-09-06T08:03:37.578Z,101826.69
2022-09-06T08:04:42.022Z,101840.50
2022-09-06T08:09:58.262Z,101827.34
2022-09-06T08:11:01.266Z,101822.16
2022-09-06T08:12:07.578Z,101829.50
2022-09-06T08:13:10.505Z,101828.38
2022-09-06T08:14:13.775Z,101837.16
2022-09-06T08:15:16.849Z,101830.38
2022-09-06T08:16:20.310Z,101828.63
2022-09-06T08:17:26.687Z,101826.22
2022-09-06T08:18:29.811Z,101827.78
2022-09-06T08:19:34.658Z,101831.69
2022-09-06T08:20:37.788Z,101828.09
2022-09-06T08:21:40.821Z,101831.09
2022-09-06T08:22:43.938Z,101830.97
2022-09-06T08:23:52.672Z,101831.63
2022-09-06T08:24:55.839Z,101826.69
2022-09-06T08:25:59.917Z,101826.66
2022-09-06T08:27:03.747Z,101828.50
2022-09-06T08:28:06.728Z,101827.31
2022-09-06T08:29:11.199Z,101814.72
2022-09-06T08:30:14.555Z,101821.03
2022-09-06T08:31:18.177Z,101819.75
2022-09-06T08:32:21.247Z,101822.31
2022-09-06T08:33:25.807Z,101819.50
2022-09-06T08:34:29.368Z,101813.47
2022-09-06T08:35:32.574Z,101818.59
2022-09-06T08:36:35.650Z,101815.50
2022-09-06T08:37:38.663Z,101814.91
2022-09-06T08:38:41.892Z,101817.66
2022-09-06T08:39:45.176Z,101813.06
2022-09-06T08:40:48.414Z,101815.56
2022-09-06T08:42:05.967Z,101817.59
2022-09-06T08:43:18.376Z,101809.16
2022-09-06T08:46:01.628Z,101801.00
2022-09-06T08:47:14.142Z,101808.97
2022-09-06T08:48:17.188Z,101807.63
2022-09-06T08:49:20.574Z,101794.66
2022-09-06T08:50:28.547Z,101798.78
2022-09-06T08:51:33.345Z,101795.84
2022-09-06T08:53:18.389Z,101798.88
2022-09-06T08:55:09.320Z,101806.50
2022-09-06T08:56:21.249Z,101805.97
2022-09-06T08:57:53.087Z,101799.13
2022-09-06T08:59:07.666Z,101800.25
2022-09-06T09:00:13.668Z,101796.44
2022-09-06T09:01:27.507Z,101794.28
2022-09-06T09:03:17.459Z,101790.56
2022-09-06T09:04:26.505Z,101796.72
2022-09-06T09:05:38.586Z,101802.09
2022-09-06T09:06:42.384Z,101793.28
2022-09-06T09:07:56.381Z,101786.91
2022-09-06T09:09:13.505Z,101786.91
2022-09-06T09:10:39.689Z,101789.66
2022-09-06T09:11:50.821Z,101789.66
2022-09-06T09:12:54.136Z,101788.63
2022-09-06T09:14:06.449Z,101790.41
2022-09-06T09:15:13.548Z,101788.28
2022-09-06T09:16:17.449Z,101789.88
2022-09-06T09:17:29.283Z,101788.44
2022-09-06T09:18:39.318Z,101777.06
2022-09-06T09:19:42.816Z,101786.50
2022-09-06T09:20:45.905Z,101788.94
2022-09-06T09:21:48.987Z,101784.06
2022-09-06T09:22:52.015Z,101778.53
2022-09-06T09:23:58.979Z,101783.19
2022-09-06T09:25:04.334Z,101775.22
2022-09-06T09:26:16.975Z,101771.84
2022-09-06T09:27:27.350Z,101770.66
2022-09-06T09:28:30.581Z,101774.38
2022-09-06T09:31:53.434Z,101799.00
2022-09-06T09:32:57.053Z,101787.75
2022-09-06T09:34:02.896Z,101776.03
2022-09-06T09:35:41.147Z,101776.00
2022-09-06T09:38:19.185Z,101769.38
2022-09-06T09:39:36.647Z,101762.44
2022-09-06T09:40:49.820Z,101764.56
2022-09-06T09:41:52.680Z,101765.50
2022-09-06T09:43:09.271Z,101767.22
2022-09-06T09:44:19.115Z,101764.84
2022-09-06T09:45:31.825Z,101760.13
2022-09-06T09:46:39.198Z,101750.41
2022-09-06T09:47:42.554Z,101759.28
2022-09-06T09:49:14.366Z,101768.75
2022-09-06T09:50:30.471Z,101774.13
2022-09-06T09:51:36.413Z,101758.78
2022-09-06T09:52:44.892Z,101746.63
2022-09-06T09:53:57.480Z,101756.88
2022-09-06T09:55:05.825Z,101765.28
2022-09-06T09:56:08.828Z,101765.50
2022-09-06T09:57:18.197Z,101759.38
2022-09-06T09:58:36.776Z,101760.28
2022-09-06T10:00:03.092Z,101750.25
2022-09-06T10:01:25.859Z,101752.34
2022-09-06T10:02:35.840Z,101756.00
2022-09-06T10:05:17.537Z,101736.78
2022-09-06T10:07:58.949Z,101739.09
2022-09-06T10:09:33.697Z,101732.19
2022-09-06T10:10:47.872Z,101732.56
2022-09-06T10:11:59.077Z,101727.59
2022-09-06T10:13:26.944Z,101715.66
2022-09-06T10:14:45.587Z,101710.63
2022-09-06T10:15:52.131Z,101709.81
2022-09-06T10:16:56.585Z,101702.47
2022-09-06T10:17:59.707Z,101704.69
2022-09-06T10:19:23.599Z,101707.97
2022-09-06T10:21:14.799Z,101702.72
2022-09-06T10:23:08.718Z,101694.66
2022-09-06T10:24:38.361Z,101702.81
2022-09-06T10:25:55.473Z,101697.19
2022-09-06T10:27:02.836Z,101697.69
2022-09-06T10:28:50.411Z,101709.06
2022-09-06T10:30:07.929Z,101695.97
2022-09-06T10:31:50.993Z,101690.13
2022-09-06T10:33:38.123Z,101691.06
2022-09-06T10:35:31.012Z,101699.59
2022-09-06T10:36:41.294Z,101687.63
2022-09-06T10:38:16.161Z,101684.50
2022-09-06T10:39:27.969Z,101680.88
2022-09-06T10:41:05.761Z,101693.31
2022-09-06T10:42:44.263Z,101693.63
2022-09-06T10:44:18.722Z,101688.56
2022-09-06T10:46:02.554Z,101687.25
2022-09-06T10:47:13.550Z,101686.03
2022-09-06T10:48:36.120Z,101684.06
2022-09-06T10:49:45.312Z,101685.91
2022-09-06T10:51:02.139Z,101675.88
2022-09-06T10:52:12.072Z,101674.25
2022-09-06T10:53:36.807Z,101684.09
2022-09-06T10:54:42.222Z,101676.38
2022-09-06T10:55:48.762Z,101681.72
2022-09-06T11:00:46.817Z,101671.63
2022-09-06T11:02:29.172Z,101666.28
2022-09-06T11:04:00.358Z,101667.19
2022-09-06T11:06:56.154Z,101661.94
2022-09-06T11:09:43.930Z,101648.72
2022-09-06T11:10:51.080Z,101661.53
2022-09-06T11:12:33.829Z,101652.63
2022-09-06T11:13:38.108Z,101645.47
2022-09-06T11:14:41.949Z,101651.44
2022-09-06T11:16:08.770Z,101653.41
2022-09-06T11:17:56.660Z,101644.22
2022-09-06T11:19:17.592Z,101649.13
2022-09-06T11:20:35.886Z,101644.97
2022-09-06T11:21:55.237Z,101645.63
2022-09-06T11:23:37.966Z,101647.00
2022-09-06T11:25:34.339Z,101639.22
2022-09-06T11:27:00.925Z,101644.94
2022-09-06T11:28:11.089Z,101642.09
2022-09-06T11:29:30.110Z,101644.00
2022-09-06T11:30:34.661Z,101642.66
2022-09-06T11:32:17.087Z,101648.34
2022-09-06T11:33:39.743Z,101652.84
2022-09-06T11:34:56.833Z,101656.69
2022-09-06T11:36:34.876Z,101659.28
2022-09-06T11:37:43.850Z,101650.59
2022-09-06T11:39:01.356Z,101651.91
2022-09-06T11:41:35.315Z,101657.59
2022-09-06T11:42:47.924Z,101646.63
2022-09-06T11:43:53.883Z,101655.94
2022-09-06T11:44:59.454Z,101658.81
2022-09-06T11:46:02.668Z,101651.06
2022-09-06T11:47:07.775Z,101647.72
2022-09-06T11:48:44.034Z,101641.56
2022-09-06T11:49:47.130Z,101643.38
2022-09-06T11:50:59.161Z,101648.75
2022-09-06T11:52:03.647Z,101639.03
2022-09-06T11:53:17.648Z,101640.88
2022-09-06T11:54:24.119Z,101638.25
2022-09-06T11:55:38.163Z,101639.13
2022-09-06T11:56:46.897Z,101641.84
2022-09-06T11:57:55.932Z,101637.41
2022-09-06T11:59:29.381Z,101642.72
2022-09-06T12:00:32.753Z,101640.97
2022-09-06T12:01:38.906Z,101637.44
2022-09-06T12:02:43.098Z,101640.09
2022-09-06T12:04:06.182Z,101636.59
2022-09-06T12:05:15.807Z,101639.25
2022-09-06T12:07:04.549Z,101633.91
2022-09-06T12:08:31.945Z,101627.72
2022-09-06T12:09:43.979Z,101631.22
2022-09-06T12:11:06.117Z,101633.00
2022-09-06T12:12:13.469Z,101625.91
2022-09-06T12:14:02.623Z,101624.16
2022-09-06T12:15:53.646Z,101621.50
2022-09-06T12:17:04.959Z,101624.16
2022-09-06T12:18:07.901Z,101609.06
2022-09-06T12:19:54.402Z,101623.28
2022-09-06T12:20:57.618Z,101609.09
2022-09-06T12:22:00.599Z,101611.78
2022-09-06T12:23:03.983Z,101618.00
2022-09-06T12:24:35.553Z,101610.03
2022-09-06T12:25:40.710Z,101616.19
2022-09-06T12:26:55.530Z,101611.75
2022-09-06T12:28:08.838Z,101612.66
2022-09-06T12:29:11.942Z,101608.22
2022-09-06T12:30:48.892Z,101602.91
2022-09-06T12:32:01.741Z,101606.44
2022-09-06T12:33:38.965Z,101604.66
2022-09-06T12:34:45.518Z,101603.78
2022-09-06T12:35:57.155Z,101606.47
2022-09-06T12:37:10.644Z,101602.03
2022-09-06T12:38:17.221Z,101594.91
2022-09-06T12:39:21.774Z,101598.47
2022-09-06T12:40:29.628Z,101595.81
2022-09-06T12:41:43.307Z,101594.94
2022-09-06T12:42:48.646Z,101594.94
2022-09-06T12:43:51.962Z,101596.69
2022-09-06T12:44:56.640Z,101600.22
2022-09-06T12:46:00.185Z,101587.84
2022-09-06T12:47:31.417Z,101592.28
2022-09-06T12:48:41.212Z,101596.69
2022-09-06T12:49:44.233Z,101593.16
2022-09-06T12:51:05.779Z,101588.72
2022-09-06T12:52:15.800Z,101582.50
2022-09-06T12:53:25.798Z,101586.06
2022-09-06T12:54:29.150Z,101587.84
2022-09-06T12:55:38.624Z,101587.81
2022-09-06T12:56:41.585Z,101588.69
2022-09-06T12:58:06.443Z,101593.06
2022-09-06T12:59:25.229Z,101585.09
2022-09-06T13:00:51.726Z,101584.19
2022-09-06T13:02:08.793Z,101582.41
2022-09-06T13:03:30.837Z,101578.88
2022-09-06T13:04:48.828Z,101579.75
2022-09-06T13:05:55.174Z,101577.09
2022-09-06T13:06:59.891Z,101578.91
2022-09-06T13:08:04.067Z,101580.66
2022-09-06T13:09:12.030Z,101583.31
2022-09-06T13:10:19.245Z,101576.22
2022-09-06T13:11:44.451Z,101582.41
2022-09-06T13:12:50.945Z,101578.00
2022-09-06T13:13:55.606Z,101580.66
2022-09-06T13:15:08.922Z,101581.53
2022-09-06T13:16:12.153Z,101579.78
2022-09-06T13:17:29.874Z,101580.72
2022-09-06T13:18:38.224Z,101583.38
2022-09-06T13:19:42.643Z,101589.59
2022-09-06T13:20:45.812Z,101579.84
2022-09-06T13:21:49.576Z,101593.16
2022-09-06T13:22:54.410Z,101585.19
2022-09-06T13:23:59.190Z,101594.91
2022-09-06T13:25:03.083Z,101595.78
2022-09-06T13:26:06.223Z,101592.25
2022-09-06T13:27:36.071Z,101586.94
2022-09-06T13:28:39.728Z,101578.09
2022-09-06T13:30:33.544Z,101583.38
2022-09-06T13:31:36.939Z,101577.19
2022-09-06T13:32:48.581Z,101586.03
2022-09-06T13:33:59.431Z,101580.69
2022-09-06T13:35:04.693Z,101579.78
2022-09-06T13:36:13.890Z,101578.00
2022-09-06T13:37:17.149Z,101570.94
2022-09-06T13:38:45.139Z,101567.38
2022-09-06T13:39:49.010Z,101575.34
2022-09-06T13:42:39.133Z,101581.53
2022-09-06T13:43:48.681Z,101582.44
2022-09-06T13:44:51.981Z,101575.34
2022-09-06T13:46:06.964Z,101569.16
2022-09-06T13:47:09.884Z,101570.03
2022-09-06T13:48:28.418Z,101570.94
2022-09-06T13:49:33.142Z,101569.16
2022-09-06T13:50:36.818Z,101566.50